sensor_id;sensor_type;location;lat;lon;timestamp;P1;durP1;ratioP1;P2;durP2;ratioP2
2386;SDS011;49473;50.772;8.768;2023-04-06T00:02:02;10.43;;;7.47;;
2386;SDS011;49473;50.772;8.768;2023-04-06T00:04:28;7.70;;;6.90;;
2386;SDS011;49473;50.772;8.768;2023-04-06T00:06:55;8.30;;;7.10;;
2386;SDS011;49473;50.772;8.768;2023-04-06T00:09:22;8.60;;;6.97;;
2386;SDS011;49473;50.772;8.768;2023-04-06T00:11:49;9.33;;;6.63;;
2386;SDS011;49473;50.772;8.768;2023-04-06T00:14:17;8.37;;;6.70;;
2386;SDS011;49473;50.772;8.768;2023-04-06T00:16:44;7.67;;;6.73;;
2386;SDS011;49473;50.772;8.768;2023-04-06T00:19:11;6.90;;;6.27;;
2386;SDS011;49473;50.772;8.768;2023-04-06T00:21:37;9.20;;;4.90;;
2386;SDS011;49473;50.772;8.768;2023-04-06T00:24:04;4.80;;;4.33;;
2386;SDS011;49473;50.772;8.768;2023-04-06T00:26:31;4.60;;;4.13;;
2386;SDS011;49473;50.772;8.768;2023-04-06T00:28:58;7.07;;;6.37;;
2386;SDS011;49473;50.772;8.768;2023-04-06T00:31:26;6.13;;;5.63;;
2386;SDS011;49473;50.772;8.768;2023-04-06T00:33:53;6.20;;;5.70;;
2386;SDS011;49473;50.772;8.768;2023-04-06T00:36:20;6.27;;;5.67;;
2386;SDS011;49473;50.772;8.768;2023-04-06T00:38:46;5.97;;;4.90;;
2386;SDS011;49473;50.772;8.768;2023-04-06T00:41:13;8.00;;;6.70;;
2386;SDS011;49473;50.772;8.768;2023-04-06T00:43:40;5.10;;;4.70;;
2386;SDS011;49473;50.772;8.768;2023-04-06T00:46:07;5.73;;;5.23;;
2386;SDS011;49473;50.772;8.768;2023-04-06T00:48:35;6.47;;;5.33;;
2386;SDS011;49473;50.772;8.768;2023-04-06T00:51:02;6.13;;;5.27;;
2386;SDS011;49473;50.772;8.768;2023-04-06T00:53:29;7.10;;;5.10;;
2386;SDS011;49473;50.772;8.768;2023-04-06T00:55:55;7.20;;;6.60;;
2386;SDS011;49473;50.772;8.768;2023-04-06T00:58:23;8.33;;;7.13;;
2386;SDS011;49473;50.772;8.768;2023-04-06T01:00:50;7.70;;;6.23;;
2386;SDS011;49473;50.772;8.768;2023-04-06T01:03:16;7.40;;;6.80;;
2386;SDS011;49473;50.772;8.768;2023-04-06T01:05:44;9.87;;;7.23;;
2386;SDS011;49473;50.772;8.768;2023-04-06T01:08:11;7.37;;;6.73;;
2386;SDS011;49473;50.772;8.768;2023-04-06T01:10:38;8.80;;;6.20;;
2386;SDS011;49473;50.772;8.768;2023-04-06T01:13:05;7.17;;;6.47;;
2386;SDS011;49473;50.772;8.768;2023-04-06T01:15:33;7.53;;;6.73;;
2386;SDS011;49473;50.772;8.768;2023-04-06T01:18:03;7.40;;;6.80;;
2386;SDS011;49473;50.772;8.768;2023-04-06T01:20:31;7.53;;;6.13;;
2386;SDS011;49473;50.772;8.768;2023-04-06T01:22:59;7.67;;;6.90;;
2386;SDS011;49473;50.772;8.768;2023-04-06T01:25:26;7.77;;;6.47;;
2386;SDS011;49473;50.772;8.768;2023-04-06T01:27:54;7.20;;;6.23;;
2386;SDS011;49473;50.772;8.768;2023-04-06T01:30:21;11.23;;;9.30;;
2386;SDS011;49473;50.772;8.768;2023-04-06T01:32:47;8.30;;;7.43;;
2386;SDS011;49473;50.772;8.768;2023-04-06T01:35:14;8.37;;;7.57;;
2386;SDS011;49473;50.772;8.768;2023-04-06T01:37:41;7.87;;;7.07;;
2386;SDS011;49473;50.772;8.768;2023-04-06T01:40:09;9.10;;;8.20;;
2386;SDS011;49473;50.772;8.768;2023-04-06T01:42:37;7.90;;;7.20;;
2386;SDS011;49473;50.772;8.768;2023-04-06T01:45:04;8.37;;;7.57;;
2386;SDS011;49473;50.772;8.768;2023-04-06T01:47:31;8.00;;;7.30;;
2386;SDS011;49473;50.772;8.768;2023-04-06T01:49:58;7.60;;;7.00;;
2386;SDS011;49473;50.772;8.768;2023-04-06T01:52:25;6.50;;;6.00;;
2386;SDS011;49473;50.772;8.768;2023-04-06T01:54:51;6.30;;;5.70;;
2386;SDS011;49473;50.772;8.768;2023-04-06T01:57:19;7.40;;;5.70;;
2386;SDS011;49473;50.772;8.768;2023-04-06T01:59:46;6.40;;;5.90;;
2386;SDS011;49473;50.772;8.768;2023-04-06T02:02:13;6.40;;;5.80;;
2386;SDS011;49473;50.772;8.768;2023-04-06T02:04:40;11.40;;;8.40;;
2386;SDS011;49473;50.772;8.768;2023-04-06T02:07:07;9.37;;;7.83;;
2386;SDS011;49473;50.772;8.768;2023-04-06T02:09:34;7.60;;;6.30;;
2386;SDS011;49473;50.772;8.768;2023-04-06T02:12:01;8.87;;;5.80;;
2386;SDS011;49473;50.772;8.768;2023-04-06T02:14:30;9.03;;;8.20;;
2386;SDS011;49473;50.772;8.768;2023-04-06T02:16:56;7.57;;;6.97;;
2386;SDS011;49473;50.772;8.768;2023-04-06T02:19:23;6.37;;;5.77;;
2386;SDS011;49473;50.772;8.768;2023-04-06T02:21:50;7.23;;;5.77;;
2386;SDS011;49473;50.772;8.768;2023-04-06T02:24:16;7.13;;;5.53;;
2386;SDS011;49473;50.772;8.768;2023-04-06T02:26:43;6.30;;;5.70;;
2386;SDS011;49473;50.772;8.768;2023-04-06T02:29:10;6.57;;;5.70;;
2386;SDS011;49473;50.772;8.768;2023-04-06T02:31:38;6.67;;;5.20;;
2386;SDS011;49473;50.772;8.768;2023-04-06T02:34:05;5.83;;;5.13;;
2386;SDS011;49473;50.772;8.768;2023-04-06T02:36:32;5.03;;;4.63;;
2386;SDS011;49473;50.772;8.768;2023-04-06T02:38:58;5.80;;;5.30;;
2386;SDS011;49473;50.772;8.768;2023-04-06T02:41:25;8.00;;;6.80;;
2386;SDS011;49473;50.772;8.768;2023-04-06T02:43:52;8.10;;;5.73;;
2386;SDS011;49473;50.772;8.768;2023-04-06T02:46:18;6.57;;;5.87;;
2386;SDS011;49473;50.772;8.768;2023-04-06T02:48:47;5.63;;;5.03;;
2386;SDS011;49473;50.772;8.768;2023-04-06T02:51:13;6.90;;;6.30;;
2386;SDS011;49473;50.772;8.768;2023-04-06T02:53:40;8.63;;;6.60;;
2386;SDS011;49473;50.772;8.768;2023-04-06T02:56:07;12.23;;;9.10;;
2386;SDS011;49473;50.772;8.768;2023-04-06T02:58:33;14.13;;;10.07;;
2386;SDS011;49473;50.772;8.768;2023-04-06T03:01:00;10.30;;;7.70;;
2386;SDS011;49473;50.772;8.768;2023-04-06T03:03:27;5.90;;;5.30;;
2386;SDS011;49473;50.772;8.768;2023-04-06T03:05:55;7.30;;;5.90;;
2386;SDS011;49473;50.772;8.768;2023-04-06T03:08:23;7.50;;;6.10;;
2386;SDS011;49473;50.772;8.768;2023-04-06T03:10:50;6.37;;;5.77;;
2386;SDS011;49473;50.772;8.768;2023-04-06T03:13:17;6.87;;;5.37;;
2386;SDS011;49473;50.772;8.768;2023-04-06T03:15:43;6.37;;;5.77;;
2386;SDS011;49473;50.772;8.768;2023-04-06T03:18:10;7.93;;;6.07;;
2386;SDS011;49473;50.772;8.768;2023-04-06T03:20:37;10.77;;;7.90;;
2386;SDS011;49473;50.772;8.768;2023-04-06T03:23:05;13.33;;;9.30;;
2386;SDS011;49473;50.772;8.768;2023-04-06T03:25:32;7.20;;;6.60;;
2386;SDS011;49473;50.772;8.768;2023-04-06T03:27:58;7.03;;;6.17;;
2386;SDS011;49473;50.772;8.768;2023-04-06T03:30:25;8.07;;;7.27;;
2386;SDS011;49473;50.772;8.768;2023-04-06T03:32:52;13.00;;;7.60;;
2386;SDS011;49473;50.772;8.768;2023-04-06T03:35:18;7.30;;;6.60;;
2386;SDS011;49473;50.772;8.768;2023-04-06T03:37:45;8.73;;;7.93;;
2386;SDS011;49473;50.772;8.768;2023-04-06T03:40:13;10.70;;;7.10;;
2386;SDS011;49473;50.772;8.768;2023-04-06T03:42:40;8.00;;;5.80;;
2386;SDS011;49473;50.772;8.768;2023-04-06T03:45:07;5.83;;;5.33;;
2386;SDS011;49473;50.772;8.768;2023-04-06T03:47:35;7.53;;;5.77;;
2386;SDS011;49473;50.772;8.768;2023-04-06T03:50:01;6.67;;;6.07;;
2386;SDS011;49473;50.772;8.768;2023-04-06T03:52:28;8.10;;;7.30;;
2386;SDS011;49473;50.772;8.768;2023-04-06T03:54:55;7.30;;;6.70;;
2386;SDS011;49473;50.772;8.768;2023-04-06T03:57:23;7.77;;;6.57;;
2386;SDS011;49473;50.772;8.768;2023-04-06T03:59:50;7.10;;;6.40;;
2386;SDS011;49473;50.772;8.768;2023-04-06T04:02:17;5.70;;;5.20;;
2386;SDS011;49473;50.772;8.768;2023-04-06T04:04:43;8.13;;;5.73;;
2386;SDS011;49473;50.772;8.768;2023-04-06T04:07:10;8.23;;;7.30;;
2386;SDS011;49473;50.772;8.768;2023-04-06T04:09:37;6.80;;;6.20;;
2386;SDS011;49473;50.772;8.768;2023-04-06T04:12:04;9.30;;;8.10;;
2386;SDS011;49473;50.772;8.768;2023-04-06T04:14:32;9.50;;;8.50;;
2386;SDS011;49473;50.772;8.768;2023-04-06T04:16:59;9.93;;;8.73;;
2386;SDS011;49473;50.772;8.768;2023-04-06T04:19:26;9.53;;;8.67;;
2386;SDS011;49473;50.772;8.768;2023-04-06T04:21:52;9.67;;;8.67;;
2386;SDS011;49473;50.772;8.768;2023-04-06T04:24:19;8.90;;;8.10;;
2386;SDS011;49473;50.772;8.768;2023-04-06T04:26:46;8.50;;;7.70;;
2386;SDS011;49473;50.772;8.768;2023-04-06T04:29:12;7.90;;;7.30;;
2386;SDS011;49473;50.772;8.768;2023-04-06T04:31:41;9.10;;;8.20;;
2386;SDS011;49473;50.772;8.768;2023-04-06T04:34:08;7.83;;;7.13;;
2386;SDS011;49473;50.772;8.768;2023-04-06T04:36:35;8.23;;;7.47;;
2386;SDS011;49473;50.772;8.768;2023-04-06T04:39:01;8.00;;;7.20;;
2386;SDS011;49473;50.772;8.768;2023-04-06T04:41:28;7.10;;;6.50;;
2386;SDS011;49473;50.772;8.768;2023-04-06T04:43:55;8.40;;;7.13;;
2386;SDS011;49473;50.772;8.768;2023-04-06T04:46:22;8.47;;;7.10;;
2386;SDS011;49473;50.772;8.768;2023-04-06T04:48:50;6.97;;;6.20;;
2386;SDS011;49473;50.772;8.768;2023-04-06T04:51:17;5.90;;;5.30;;
2386;SDS011;49473;50.772;8.768;2023-04-06T04:53:44;9.27;;;6.57;;
2386;SDS011;49473;50.772;8.768;2023-04-06T04:56:11;6.50;;;5.90;;
2386;SDS011;49473;50.772;8.768;2023-04-06T04:58:38;7.50;;;6.80;;
2386;SDS011;49473;50.772;8.768;2023-04-06T05:01:05;7.10;;;6.50;;
2386;SDS011;49473;50.772;8.768;2023-04-06T05:03:31;7.70;;;7.00;;
2386;SDS011;49473;50.772;8.768;2023-04-06T05:06:00;7.03;;;6.20;;
2386;SDS011;49473;50.772;8.768;2023-04-06T05:08:27;7.40;;;6.70;;
2386;SDS011;49473;50.772;8.768;2023-04-06T05:10:53;7.27;;;6.57;;
2386;SDS011;49473;50.772;8.768;2023-04-06T05:13:20;7.10;;;6.43;;
2386;SDS011;49473;50.772;8.768;2023-04-06T05:15:47;7.23;;;6.53;;
2386;SDS011;49473;50.772;8.768;2023-04-06T05:18:14;10.47;;;7.07;;
2386;SDS011;49473;50.772;8.768;2023-04-06T05:20:42;7.23;;;6.50;;
2386;SDS011;49473;50.772;8.768;2023-04-06T05:23:10;7.80;;;7.00;;
2386;SDS011;49473;50.772;8.768;2023-04-06T05:25:37;7.20;;;6.50;;
2386;SDS011;49473;50.772;8.768;2023-04-06T05:28:04;11.00;;;8.50;;
2386;SDS011;49473;50.772;8.768;2023-04-06T05:30:30;24.63;;;22.57;;
2386;SDS011;49473;50.772;8.768;2023-04-06T05:32:57;10.40;;;9.50;;
2386;SDS011;49473;50.772;8.768;2023-04-06T05:35:25;7.50;;;6.80;;
2386;SDS011;49473;50.772;8.768;2023-04-06T05:37:51;19.50;;;15.30;;
2386;SDS011;49473;50.772;8.768;2023-04-06T05:40:19;9.37;;;8.37;;
2386;SDS011;49473;50.772;8.768;2023-04-06T05:42:46;28.70;;;18.13;;
2386;SDS011;49473;50.772;8.768;2023-04-06T05:45:14;31.70;;;21.40;;
2386;SDS011;49473;50.772;8.768;2023-04-06T05:47:43;89.20;;;50.37;;
2386;SDS011;49473;50.772;8.768;2023-04-06T05:50:10;31.53;;;26.17;;
2386;SDS011;49473;50.772;8.768;2023-04-06T05:52:38;15.10;;;13.60;;
2386;SDS011;49473;50.772;8.768;2023-04-06T05:55:08;9.50;;;8.70;;
2386;SDS011;49473;50.772;8.768;2023-04-06T05:57:36;6.37;;;5.77;;
2386;SDS011;49473;50.772;8.768;2023-04-06T06:00:03;4.83;;;4.50;;
2386;SDS011;49473;50.772;8.768;2023-04-06T06:02:32;5.63;;;5.03;;
2386;SDS011;49473;50.772;8.768;2023-04-06T06:04:59;6.27;;;4.67;;
2386;SDS011;49473;50.772;8.768;2023-04-06T06:07:26;5.73;;;4.80;;
2386;SDS011;49473;50.772;8.768;2023-04-06T06:09:55;5.00;;;4.60;;
2386;SDS011;49473;50.772;8.768;2023-04-06T06:12:23;5.33;;;4.70;;
2386;SDS011;49473;50.772;8.768;2023-04-06T06:14:51;5.83;;;5.10;;
2386;SDS011;49473;50.772;8.768;2023-04-06T06:17:18;5.60;;;5.17;;
2386;SDS011;49473;50.772;8.768;2023-04-06T06:19:44;6.50;;;5.80;;
2386;SDS011;49473;50.772;8.768;2023-04-06T06:22:11;6.00;;;5.60;;
2386;SDS011;49473;50.772;8.768;2023-04-06T06:24:38;11.73;;;6.60;;
2386;SDS011;49473;50.772;8.768;2023-04-06T06:27:05;8.77;;;7.70;;
2386;SDS011;49473;50.772;8.768;2023-04-06T06:29:32;7.70;;;7.20;;
2386;SDS011;49473;50.772;8.768;2023-04-06T06:32:01;6.83;;;6.33;;
2386;SDS011;49473;50.772;8.768;2023-04-06T06:34:28;7.17;;;6.57;;
2386;SDS011;49473;50.772;8.768;2023-04-06T06:36:54;6.40;;;5.90;;
2386;SDS011;49473;50.772;8.768;2023-04-06T06:39:21;6.63;;;6.13;;
2386;SDS011;49473;50.772;8.768;2023-04-06T06:41:48;7.17;;;6.63;;
2386;SDS011;49473;50.772;8.768;2023-04-06T06:44:15;7.07;;;6.40;;
2386;SDS011;49473;50.772;8.768;2023-04-06T06:46:42;6.93;;;6.30;;
2386;SDS011;49473;50.772;8.768;2023-04-06T06:49:10;7.20;;;6.70;;
2386;SDS011;49473;50.772;8.768;2023-04-06T06:51:37;6.43;;;6.00;;
2386;SDS011;49473;50.772;8.768;2023-04-06T06:54:04;7.93;;;6.13;;
2386;SDS011;49473;50.772;8.768;2023-04-06T06:56:31;7.03;;;6.37;;
2386;SDS011;49473;50.772;8.768;2023-04-06T06:58:58;6.50;;;5.90;;
2386;SDS011;49473;50.772;8.768;2023-04-06T07:01:24;7.83;;;6.50;;
2386;SDS011;49473;50.772;8.768;2023-04-06T07:03:51;6.67;;;6.10;;
2386;SDS011;49473;50.772;8.768;2023-04-06T07:06:19;7.03;;;6.43;;
2386;SDS011;49473;50.772;8.768;2023-04-06T07:08:46;6.53;;;6.03;;
2386;SDS011;49473;50.772;8.768;2023-04-06T07:11:13;6.37;;;5.87;;
2386;SDS011;49473;50.772;8.768;2023-04-06T07:13:40;6.50;;;5.90;;
2386;SDS011;49473;50.772;8.768;2023-04-06T07:16:07;6.23;;;5.63;;
2386;SDS011;49473;50.772;8.768;2023-04-06T07:18:33;6.30;;;5.80;;
2386;SDS011;49473;50.772;8.768;2023-04-06T07:21:00;6.97;;;5.83;;
2386;SDS011;49473;50.772;8.768;2023-04-06T07:23:28;6.50;;;6.00;;
2386;SDS011;49473;50.772;8.768;2023-04-06T07:25:55;7.83;;;5.87;;
2386;SDS011;49473;50.772;8.768;2023-04-06T07:28:22;6.33;;;5.83;;
2386;SDS011;49473;50.772;8.768;2023-04-06T07:30:49;6.50;;;5.87;;
2386;SDS011;49473;50.772;8.768;2023-04-06T07:33:16;7.30;;;6.70;;
2386;SDS011;49473;50.772;8.768;2023-04-06T07:35:42;6.47;;;5.93;;
2386;SDS011;49473;50.772;8.768;2023-04-06T07:38:10;7.43;;;6.80;;
2386;SDS011;49473;50.772;8.768;2023-04-06T07:40:38;6.80;;;6.10;;
2386;SDS011;49473;50.772;8.768;2023-04-06T07:43:05;6.90;;;6.30;;
2386;SDS011;49473;50.772;8.768;2023-04-06T07:45:32;6.13;;;5.53;;
2386;SDS011;49473;50.772;8.768;2023-04-06T07:47:58;6.80;;;6.30;;
2386;SDS011;49473;50.772;8.768;2023-04-06T07:50:25;6.70;;;6.20;;
2386;SDS011;49473;50.772;8.768;2023-04-06T07:52:52;6.97;;;6.33;;
2386;SDS011;49473;50.772;8.768;2023-04-06T07:55:19;6.40;;;5.90;;
2386;SDS011;49473;50.772;8.768;2023-04-06T07:57:47;6.13;;;5.63;;
2386;SDS011;49473;50.772;8.768;2023-04-06T08:00:14;6.40;;;5.90;;
2386;SDS011;49473;50.772;8.768;2023-04-06T08:02:41;6.40;;;5.90;;
2386;SDS011;49473;50.772;8.768;2023-04-06T08:05:08;7.10;;;6.50;;
2386;SDS011;49473;50.772;8.768;2023-04-06T08:07:35;8.03;;;7.43;;
2386;SDS011;49473;50.772;8.768;2023-04-06T08:10:02;7.83;;;7.23;;
2386;SDS011;49473;50.772;8.768;2023-04-06T08:12:29;7.33;;;6.63;;
2386;SDS011;49473;50.772;8.768;2023-04-06T08:14:57;7.70;;;7.10;;
2386;SDS011;49473;50.772;8.768;2023-04-06T08:17:24;7.33;;;6.80;;
2386;SDS011;49473;50.772;8.768;2023-04-06T08:19:54;7.23;;;6.63;;
2386;SDS011;49473;50.772;8.768;2023-04-06T08:22:21;7.67;;;6.70;;
2386;SDS011;49473;50.772;8.768;2023-04-06T08:24:47;7.20;;;6.70;;
2386;SDS011;49473;50.772;8.768;2023-04-06T08:27:14;9.03;;;7.53;;
2386;SDS011;49473;50.772;8.768;2023-04-06T08:29:41;7.70;;;7.00;;
2386;SDS011;49473;50.772;8.768;2023-04-06T08:32:09;8.73;;;7.17;;
2386;SDS011;49473;50.772;8.768;2023-04-06T08:34:36;7.20;;;6.40;;
2386;SDS011;49473;50.772;8.768;2023-04-06T08:37:03;6.50;;;5.83;;
2386;SDS011;49473;50.772;8.768;2023-04-06T08:39:31;8.30;;;7.50;;
2386;SDS011;49473;50.772;8.768;2023-04-06T08:42:01;8.20;;;7.40;;
2386;SDS011;49473;50.772;8.768;2023-04-06T08:44:33;7.83;;;7.20;;
2386;SDS011;49473;50.772;8.768;2023-04-06T08:47:00;6.67;;;6.20;;
2386;SDS011;49473;50.772;8.768;2023-04-06T08:49:28;6.90;;;6.30;;
2386;SDS011;49473;50.772;8.768;2023-04-06T08:51:55;6.73;;;6.13;;
2386;SDS011;49473;50.772;8.768;2023-04-06T08:54:22;7.13;;;6.63;;
2386;SDS011;49473;50.772;8.768;2023-04-06T08:56:50;8.13;;;7.33;;
2386;SDS011;49473;50.772;8.768;2023-04-06T08:59:18;6.93;;;6.33;;
2386;SDS011;49473;50.772;8.768;2023-04-06T09:01:44;7.30;;;6.57;;
2386;SDS011;49473;50.772;8.768;2023-04-06T09:04:12;7.70;;;7.00;;
2386;SDS011;49473;50.772;8.768;2023-04-06T09:06:40;6.80;;;6.13;;
2386;SDS011;49473;50.772;8.768;2023-04-06T09:09:07;10.70;;;7.60;;
2386;SDS011;49473;50.772;8.768;2023-04-06T09:11:43;9.53;;;7.40;;
2386;SDS011;49473;50.772;8.768;2023-04-06T09:14:11;8.07;;;7.13;;
2386;SDS011;49473;50.772;8.768;2023-04-06T09:16:41;8.27;;;7.57;;
2386;SDS011;49473;50.772;8.768;2023-04-06T09:19:10;8.53;;;7.80;;
2386;SDS011;49473;50.772;8.768;2023-04-06T09:21:37;10.10;;;7.20;;
2386;SDS011;49473;50.772;8.768;2023-04-06T09:24:06;7.30;;;6.70;;
2386;SDS011;49473;50.772;8.768;2023-04-06T09:26:44;8.00;;;7.30;;
2386;SDS011;49473;50.772;8.768;2023-04-06T09:29:21;8.20;;;7.60;;
2386;SDS011;49473;50.772;8.768;2023-04-06T09:31:49;8.20;;;7.60;;
2386;SDS011;49473;50.772;8.768;2023-04-06T09:34:20;9.07;;;8.30;;
2386;SDS011;49473;50.772;8.768;2023-04-06T09:36:49;8.77;;;8.17;;
2386;SDS011;49473;50.772;8.768;2023-04-06T09:39:19;8.97;;;8.27;;
2386;SDS011;49473;50.772;8.768;2023-04-06T09:41:49;8.80;;;8.10;;
2386;SDS011;49473;50.772;8.768;2023-04-06T09:44:17;8.10;;;7.50;;
2386;SDS011;49473;50.772;8.768;2023-04-06T09:46:45;9.27;;;8.57;;
2386;SDS011;49473;50.772;8.768;2023-04-06T09:49:13;9.37;;;8.73;;
2386;SDS011;49473;50.772;8.768;2023-04-06T09:51:41;9.87;;;8.40;;
2386;SDS011;49473;50.772;8.768;2023-04-06T09:54:15;9.27;;;8.47;;
2386;SDS011;49473;50.772;8.768;2023-04-06T09:56:45;9.77;;;8.97;;
2386;SDS011;49473;50.772;8.768;2023-04-06T09:59:13;10.33;;;9.43;;
2386;SDS011;49473;50.772;8.768;2023-04-06T10:01:45;9.10;;;8.40;;
2386;SDS011;49473;50.772;8.768;2023-04-06T10:04:18;9.50;;;8.70;;
2386;SDS011;49473;50.772;8.768;2023-04-06T10:06:51;9.57;;;8.77;;
2386;SDS011;49473;50.772;8.768;2023-04-06T10:09:20;9.33;;;8.53;;
2386;SDS011;49473;50.772;8.768;2023-04-06T10:11:52;10.00;;;9.03;;
2386;SDS011;49473;50.772;8.768;2023-04-06T10:14:20;10.07;;;8.97;;
2386;SDS011;49473;50.772;8.768;2023-04-06T10:16:47;10.03;;;9.13;;
2386;SDS011;49473;50.772;8.768;2023-04-06T10:19:16;9.30;;;8.50;;
2386;SDS011;49473;50.772;8.768;2023-04-06T10:21:48;9.80;;;9.00;;
2386;SDS011;49473;50.772;8.768;2023-04-06T10:24:20;8.97;;;8.10;;
2386;SDS011;49473;50.772;8.768;2023-04-06T10:26:56;10.60;;;9.70;;
2386;SDS011;49473;50.772;8.768;2023-04-06T10:29:23;9.60;;;8.80;;
2386;SDS011;49473;50.772;8.768;2023-04-06T10:31:50;11.97;;;10.57;;
2386;SDS011;49473;50.772;8.768;2023-04-06T10:34:17;9.77;;;8.90;;
2386;SDS011;49473;50.772;8.768;2023-04-06T10:36:43;9.87;;;8.97;;
2386;SDS011;49473;50.772;8.768;2023-04-06T10:39:10;10.10;;;9.10;;
2386;SDS011;49473;50.772;8.768;2023-04-06T10:41:42;9.73;;;8.83;;
2386;SDS011;49473;50.772;8.768;2023-04-06T10:44:17;10.47;;;9.67;;
2386;SDS011;49473;50.772;8.768;2023-04-06T10:46:52;11.33;;;10.33;;
2386;SDS011;49473;50.772;8.768;2023-04-06T10:49:19;10.17;;;9.20;;
2386;SDS011;49473;50.772;8.768;2023-04-06T10:51:50;10.03;;;9.27;;
2386;SDS011;49473;50.772;8.768;2023-04-06T10:54:18;10.13;;;9.30;;
2386;SDS011;49473;50.772;8.768;2023-04-06T10:56:47;11.30;;;10.23;;
2386;SDS011;49473;50.772;8.768;2023-04-06T10:59:18;11.97;;;10.87;;
2386;SDS011;49473;50.772;8.768;2023-04-06T11:01:45;10.87;;;9.87;;
2386;SDS011;49473;50.772;8.768;2023-04-06T11:04:14;10.93;;;10.03;;
2386;SDS011;49473;50.772;8.768;2023-04-06T11:06:45;9.97;;;9.13;;
2386;SDS011;49473;50.772;8.768;2023-04-06T11:09:22;9.60;;;8.80;;
2386;SDS011;49473;50.772;8.768;2023-04-06T11:11:52;9.10;;;8.30;;
2386;SDS011;49473;50.772;8.768;2023-04-06T11:14:19;9.97;;;8.97;;
2386;SDS011;49473;50.772;8.768;2023-04-06T11:16:46;10.43;;;8.97;;
2386;SDS011;49473;50.772;8.768;2023-04-06T11:19:14;9.50;;;8.70;;
2386;SDS011;49473;50.772;8.768;2023-04-06T11:21:42;9.50;;;8.70;;
2386;SDS011;49473;50.772;8.768;2023-04-06T11:24:12;9.23;;;8.53;;
2386;SDS011;49473;50.772;8.768;2023-04-06T11:26:41;10.53;;;9.53;;
2386;SDS011;49473;50.772;8.768;2023-04-06T11:29:11;10.50;;;9.60;;
2386;SDS011;49473;50.772;8.768;2023-04-06T11:31:41;9.30;;;8.30;;
2386;SDS011;49473;50.772;8.768;2023-04-06T11:34:09;11.17;;;10.17;;
2386;SDS011;49473;50.772;8.768;2023-04-06T11:36:36;9.90;;;9.10;;
2386;SDS011;49473;50.772;8.768;2023-04-06T11:39:06;9.70;;;8.90;;
2386;SDS011;49473;50.772;8.768;2023-04-06T11:41:33;9.77;;;8.97;;
2386;SDS011;49473;50.772;8.768;2023-04-06T11:44:01;8.60;;;7.90;;
2386;SDS011;49473;50.772;8.768;2023-04-06T11:46:29;8.43;;;7.80;;
2386;SDS011;49473;50.772;8.768;2023-04-06T11:48:57;9.80;;;9.10;;
2386;SDS011;49473;50.772;8.768;2023-04-06T11:51:25;9.90;;;9.10;;
2386;SDS011;49473;50.772;8.768;2023-04-06T11:53:52;8.67;;;7.97;;
2386;SDS011;49473;50.772;8.768;2023-04-06T11:56:23;9.63;;;8.83;;
2386;SDS011;49473;50.772;8.768;2023-04-06T11:58:50;10.00;;;9.20;;
2386;SDS011;49473;50.772;8.768;2023-04-06T12:01:17;9.53;;;8.83;;
2386;SDS011;49473;50.772;8.768;2023-04-06T12:03:45;8.70;;;8.00;;
2386;SDS011;49473;50.772;8.768;2023-04-06T12:06:12;10.10;;;9.30;;
2386;SDS011;49473;50.772;8.768;2023-04-06T12:08:39;9.23;;;8.53;;
2386;SDS011;49473;50.772;8.768;2023-04-06T12:11:06;10.40;;;9.30;;
2386;SDS011;49473;50.772;8.768;2023-04-06T12:13:33;9.90;;;9.10;;
2386;SDS011;49473;50.772;8.768;2023-04-06T12:15:59;10.03;;;9.20;;
2386;SDS011;49473;50.772;8.768;2023-04-06T12:18:26;10.17;;;9.30;;
2386;SDS011;49473;50.772;8.768;2023-04-06T12:20:54;10.60;;;9.70;;
2386;SDS011;49473;50.772;8.768;2023-04-06T12:23:21;11.60;;;10.60;;
2386;SDS011;49473;50.772;8.768;2023-04-06T12:25:48;10.30;;;9.40;;
2386;SDS011;49473;50.772;8.768;2023-04-06T12:28:15;10.67;;;9.70;;
2386;SDS011;49473;50.772;8.768;2023-04-06T12:30:42;11.70;;;10.70;;
2386;SDS011;49473;50.772;8.768;2023-04-06T12:33:09;10.63;;;9.63;;
2386;SDS011;49473;50.772;8.768;2023-04-06T12:35:36;10.97;;;9.97;;
2386;SDS011;49473;50.772;8.768;2023-04-06T12:38:05;10.17;;;9.23;;
2386;SDS011;49473;50.772;8.768;2023-04-06T12:40:35;9.43;;;8.63;;
2386;SDS011;49473;50.772;8.768;2023-04-06T12:43:03;9.60;;;8.50;;
2386;SDS011;49473;50.772;8.768;2023-04-06T12:45:30;9.60;;;8.77;;
2386;SDS011;49473;50.772;8.768;2023-04-06T12:47:57;11.13;;;10.00;;
2386;SDS011;49473;50.772;8.768;2023-04-06T12:50:24;9.70;;;8.70;;
2386;SDS011;49473;50.772;8.768;2023-04-06T12:52:51;10.87;;;9.77;;
2386;SDS011;49473;50.772;8.768;2023-04-06T12:55:19;10.60;;;9.60;;
2386;SDS011;49473;50.772;8.768;2023-04-06T12:57:46;9.43;;;8.53;;
2386;SDS011;49473;50.772;8.768;2023-04-06T13:00:13;9.60;;;8.77;;
2386;SDS011;49473;50.772;8.768;2023-04-06T13:02:41;9.00;;;8.20;;
2386;SDS011;49473;50.772;8.768;2023-04-06T13:05:11;10.07;;;9.17;;
2386;SDS011;49473;50.772;8.768;2023-04-06T13:07:39;10.67;;;9.77;;
2386;SDS011;49473;50.772;8.768;2023-04-06T13:10:06;10.93;;;9.83;;
2386;SDS011;49473;50.772;8.768;2023-04-06T13:12:34;11.57;;;10.30;;
2386;SDS011;49473;50.772;8.768;2023-04-06T13:15:01;10.70;;;9.70;;
2386;SDS011;49473;50.772;8.768;2023-04-06T13:17:29;9.93;;;9.03;;
2386;SDS011;49473;50.772;8.768;2023-04-06T13:19:55;11.30;;;10.20;;
2386;SDS011;49473;50.772;8.768;2023-04-06T13:22:22;9.67;;;8.67;;
2386;SDS011;49473;50.772;8.768;2023-04-06T13:24:49;8.37;;;7.57;;
2386;SDS011;49473;50.772;8.768;2023-04-06T13:27:16;8.03;;;6.80;;
2386;SDS011;49473;50.772;8.768;2023-04-06T13:29:44;7.93;;;7.23;;
2386;SDS011;49473;50.772;8.768;2023-04-06T13:32:11;7.00;;;6.40;;
2386;SDS011;49473;50.772;8.768;2023-04-06T13:34:37;7.80;;;7.10;;
2386;SDS011;49473;50.772;8.768;2023-04-06T13:37:05;7.27;;;6.63;;
2386;SDS011;49473;50.772;8.768;2023-04-06T13:39:32;7.90;;;7.30;;
2386;SDS011;49473;50.772;8.768;2023-04-06T13:41:58;7.97;;;7.17;;
2386;SDS011;49473;50.772;8.768;2023-04-06T13:44:27;9.00;;;8.20;;
2386;SDS011;49473;50.772;8.768;2023-04-06T13:46:55;7.50;;;6.80;;
2386;SDS011;49473;50.772;8.768;2023-04-06T13:49:24;7.77;;;7.10;;
2386;SDS011;49473;50.772;8.768;2023-04-06T13:51:51;7.67;;;6.87;;
2386;SDS011;49473;50.772;8.768;2023-04-06T13:54:18;7.83;;;7.13;;
2386;SDS011;49473;50.772;8.768;2023-04-06T13:56:45;7.80;;;7.20;;
2386;SDS011;49473;50.772;8.768;2023-04-06T13:59:12;7.90;;;7.20;;
2386;SDS011;49473;50.772;8.768;2023-04-06T14:01:39;7.70;;;7.00;;
2386;SDS011;49473;50.772;8.768;2023-04-06T14:04:07;8.17;;;7.33;;
2386;SDS011;49473;50.772;8.768;2023-04-06T14:06:34;8.30;;;7.40;;
2386;SDS011;49473;50.772;8.768;2023-04-06T14:09:03;8.00;;;7.20;;
2386;SDS011;49473;50.772;8.768;2023-04-06T14:11:29;7.57;;;6.87;;
2386;SDS011;49473;50.772;8.768;2023-04-06T14:13:57;6.97;;;6.37;;
2386;SDS011;49473;50.772;8.768;2023-04-06T14:16:23;7.17;;;6.50;;
2386;SDS011;49473;50.772;8.768;2023-04-06T14:18:51;7.30;;;6.60;;
2386;SDS011;49473;50.772;8.768;2023-04-06T14:21:19;7.47;;;6.87;;
2386;SDS011;49473;50.772;8.768;2023-04-06T14:23:46;6.60;;;6.00;;
2386;SDS011;49473;50.772;8.768;2023-04-06T14:26:12;7.47;;;6.77;;
2386;SDS011;49473;50.772;8.768;2023-04-06T14:28:40;6.90;;;5.80;;
2386;SDS011;49473;50.772;8.768;2023-04-06T14:31:09;6.00;;;5.40;;
2386;SDS011;49473;50.772;8.768;2023-04-06T14:33:38;7.10;;;5.90;;
2386;SDS011;49473;50.772;8.768;2023-04-06T14:36:05;6.60;;;6.00;;
2386;SDS011;49473;50.772;8.768;2023-04-06T14:38:34;6.23;;;5.53;;
2386;SDS011;49473;50.772;8.768;2023-04-06T14:41:01;6.07;;;5.43;;
2386;SDS011;49473;50.772;8.768;2023-04-06T14:43:28;5.43;;;5.03;;
2386;SDS011;49473;50.772;8.768;2023-04-06T14:45:58;5.87;;;5.27;;
2386;SDS011;49473;50.772;8.768;2023-04-06T14:48:26;5.63;;;5.13;;
2386;SDS011;49473;50.772;8.768;2023-04-06T14:50:52;5.70;;;4.80;;
2386;SDS011;49473;50.772;8.768;2023-04-06T14:53:19;5.63;;;4.97;;
2386;SDS011;49473;50.772;8.768;2023-04-06T14:55:48;6.37;;;5.30;;
2386;SDS011;49473;50.772;8.768;2023-04-06T14:58:16;5.43;;;5.03;;
2386;SDS011;49473;50.772;8.768;2023-04-06T15:00:43;5.20;;;4.80;;